sensor_id;sensor_type;location;lat;lon;timestamp;P1;durP1;ratioP1;P2;durP2;ratioP2
3541;SDS011;1785;47.388;8.538;2022-09-16T00:01:19;4.97;;;4.60;;
3541;SDS011;1785;47.388;8.538;2022-09-16T00:03:46;4.47;;;4.17;;
3541;SDS011;1785;47.388;8.538;2022-09-16T00:06:16;5.63;;;4.67;;
3541;SDS011;1785;47.388;8.538;2022-09-16T00:08:44;4.60;;;4.20;;
3541;SDS011;1785;47.388;8.538;2022-09-16T00:11:10;4.77;;;4.40;;
3541;SDS011;1785;47.388;8.538;2022-09-16T00:13:37;4.40;;;4.10;;
3541;SDS011;1785;47.388;8.538;2022-09-16T00:16:05;5.80;;;5.20;;
3541;SDS011;1785;47.388;8.538;2022-09-16T00:18:33;4.90;;;4.00;;
3541;SDS011;1785;47.388;8.538;2022-09-16T00:21:00;4.57;;;4.27;;
3541;SDS011;1785;47.388;8.538;2022-09-16T00:23:27;4.67;;;4.30;;
3541;SDS011;1785;47.388;8.538;2022-09-16T00:25:53;4.60;;;4.20;;
3541;SDS011;1785;47.388;8.538;2022-09-16T00:28:21;4.70;;;4.30;;
3541;SDS011;1785;47.388;8.538;2022-09-16T00:30:48;4.87;;;4.47;;
3541;SDS011;1785;47.388;8.538;2022-09-16T00:33:14;4.30;;;4.00;;
3541;SDS011;1785;47.388;8.538;2022-09-16T00:35:41;5.90;;;4.10;;
3541;SDS011;1785;47.388;8.538;2022-09-16T00:38:08;21.87;;;4.50;;
3541;SDS011;1785;47.388;8.538;2022-09-16T00:40:34;4.90;;;4.20;;
3541;SDS011;1785;47.388;8.538;2022-09-16T00:43:08;6.03;;;4.00;;
3541;SDS011;1785;47.388;8.538;2022-09-16T00:45:37;4.57;;;3.73;;
3541;SDS011;1785;47.388;8.538;2022-09-16T00:48:04;4.30;;;4.00;;
3541;SDS011;1785;47.388;8.538;2022-09-16T00:50:33;4.80;;;4.40;;
3541;SDS011;1785;47.388;8.538;2022-09-16T00:53:02;5.17;;;4.77;;
3541;SDS011;1785;47.388;8.538;2022-09-16T00:55:31;5.20;;;4.80;;
3541;SDS011;1785;47.388;8.538;2022-09-16T00:58:01;5.47;;;5.00;;
3541;SDS011;1785;47.388;8.538;2022-09-16T01:00:33;5.40;;;5.00;;
3541;SDS011;1785;47.388;8.538;2022-09-16T01:03:00;5.87;;;5.37;;
3541;SDS011;1785;47.388;8.538;2022-09-16T01:05:27;5.87;;;5.20;;
3541;SDS011;1785;47.388;8.538;2022-09-16T01:07:53;5.53;;;5.03;;
3541;SDS011;1785;47.388;8.538;2022-09-16T01:10:21;4.73;;;4.43;;
3541;SDS011;1785;47.388;8.538;2022-09-16T01:12:49;5.80;;;5.30;;
3541;SDS011;1785;47.388;8.538;2022-09-16T01:15:18;5.10;;;4.60;;
3541;SDS011;1785;47.388;8.538;2022-09-16T01:17:51;5.77;;;5.30;;
3541;SDS011;1785;47.388;8.538;2022-09-16T01:29:46;4.80;;;4.40;;
3541;SDS011;1785;47.388;8.538;2022-09-16T01:32:26;5.07;;;4.67;;
3541;SDS011;1785;47.388;8.538;2022-09-16T01:35:00;6.23;;;5.63;;
3541;SDS011;1785;47.388;8.538;2022-09-16T01:37:35;5.77;;;5.27;;
3541;SDS011;1785;47.388;8.538;2022-09-16T01:40:13;5.60;;;5.20;;
3541;SDS011;1785;47.388;8.538;2022-09-16T01:42:45;5.80;;;5.30;;
3541;SDS011;1785;47.388;8.538;2022-09-16T01:45:21;6.03;;;5.47;;
3541;SDS011;1785;47.388;8.538;2022-09-16T01:47:56;6.10;;;5.60;;
3541;SDS011;1785;47.388;8.538;2022-09-16T01:50:30;5.27;;;4.90;;
3541;SDS011;1785;47.388;8.538;2022-09-16T01:53:03;5.83;;;5.43;;
3541;SDS011;1785;47.388;8.538;2022-09-16T01:55:37;5.73;;;4.90;;
3541;SDS011;1785;47.388;8.538;2022-09-16T01:58:08;5.43;;;5.03;;
3541;SDS011;1785;47.388;8.538;2022-09-16T02:00:40;5.80;;;5.40;;
3541;SDS011;1785;47.388;8.538;2022-09-16T02:03:09;6.90;;;6.30;;
3541;SDS011;1785;47.388;8.538;2022-09-16T02:05:39;7.00;;;6.47;;
3541;SDS011;1785;47.388;8.538;2022-09-16T02:08:13;6.90;;;6.37;;
3541;SDS011;1785;47.388;8.538;2022-09-16T02:10:44;6.10;;;5.70;;
3541;SDS011;1785;47.388;8.538;2022-09-16T02:13:16;5.73;;;5.33;;
3541;SDS011;1785;47.388;8.538;2022-09-16T02:15:47;6.80;;;6.20;;
3541;SDS011;1785;47.388;8.538;2022-09-16T02:18:17;6.70;;;6.10;;
3541;SDS011;1785;47.388;8.538;2022-09-16T02:20:47;6.50;;;6.00;;
3541;SDS011;1785;47.388;8.538;2022-09-16T02:23:17;5.90;;;5.50;;
3541;SDS011;1785;47.388;8.538;2022-09-16T02:25:47;6.80;;;6.30;;
3541;SDS011;1785;47.388;8.538;2022-09-16T02:28:15;6.80;;;6.20;;
3541;SDS011;1785;47.388;8.538;2022-09-16T02:30:46;7.03;;;5.87;;
3541;SDS011;1785;47.388;8.538;2022-09-16T02:33:16;6.30;;;5.80;;
3541;SDS011;1785;47.388;8.538;2022-09-16T02:35:45;6.00;;;5.50;;
3541;SDS011;1785;47.388;8.538;2022-09-16T02:38:16;6.43;;;5.93;;
3541;SDS011;1785;47.388;8.538;2022-09-16T02:40:47;6.40;;;5.88;;
3541;SDS011;1785;47.388;8.538;2022-09-16T02:43:17;6.50;;;5.43;;
3541;SDS011;1785;47.388;8.538;2022-09-16T02:45:44;6.93;;;6.33;;
3541;SDS011;1785;47.388;8.538;2022-09-16T02:48:15;7.20;;;6.63;;
3541;SDS011;1785;47.388;8.538;2022-09-16T02:51:02;6.40;;;5.77;;
3541;SDS011;1785;47.388;8.538;2022-09-16T02:53:39;6.47;;;5.70;;
3541;SDS011;1785;47.388;8.538;2022-09-16T02:56:12;6.63;;;6.03;;
3541;SDS011;1785;47.388;8.538;2022-09-16T02:58:46;7.30;;;6.70;;
3541;SDS011;1785;47.388;8.538;2022-09-16T03:01:13;8.33;;;6.70;;
3541;SDS011;1785;47.388;8.538;2022-09-16T03:03:40;7.73;;;7.13;;
3541;SDS011;1785;47.388;8.538;2022-09-16T03:06:12;6.20;;;5.10;;
3541;SDS011;1785;47.388;8.538;2022-09-16T03:08:44;6.83;;;6.33;;
3541;SDS011;1785;47.388;8.538;2022-09-16T03:11:20;7.63;;;7.00;;
3541;SDS011;1785;47.388;8.538;2022-09-16T03:13:57;7.30;;;6.60;;
3541;SDS011;1785;47.388;8.538;2022-09-16T03:16:35;7.27;;;6.60;;
3541;SDS011;1785;47.388;8.538;2022-09-16T03:19:11;6.90;;;6.23;;
3541;SDS011;1785;47.388;8.538;2022-09-16T03:21:46;7.43;;;6.73;;
3541;SDS011;1785;47.388;8.538;2022-09-16T03:24:20;6.50;;;6.00;;
3541;SDS011;1785;47.388;8.538;2022-09-16T03:26:54;7.23;;;6.57;;
3541;SDS011;1785;47.388;8.538;2022-09-16T03:29:26;6.00;;;5.50;;
3541;SDS011;1785;47.388;8.538;2022-09-16T03:32:00;7.50;;;6.80;;
3541;SDS011;1785;47.388;8.538;2022-09-16T03:34:32;6.20;;;5.70;;
3541;SDS011;1785;47.388;8.538;2022-09-16T03:37:02;7.18;;;6.47;;
3541;SDS011;1785;47.388;8.538;2022-09-16T03:39:31;7.90;;;7.10;;
3541;SDS011;1785;47.388;8.538;2022-09-16T03:41:59;7.07;;;6.57;;
3541;SDS011;1785;47.388;8.538;2022-09-16T03:44:30;7.67;;;6.97;;
3541;SDS011;1785;47.388;8.538;2022-09-16T03:46:57;7.20;;;6.60;;
3541;SDS011;1785;47.388;8.538;2022-09-16T03:49:23;7.60;;;7.00;;
3541;SDS011;1785;47.388;8.538;2022-09-16T03:51:50;8.03;;;7.33;;
3541;SDS011;1785;47.388;8.538;2022-09-16T03:54:17;7.15;;;6.55;;
3541;SDS011;1785;47.388;8.538;2022-09-16T03:56:43;6.63;;;6.13;;
3541;SDS011;1785;47.388;8.538;2022-09-16T03:59:09;6.77;;;6.27;;
3541;SDS011;1785;47.388;8.538;2022-09-16T04:01:35;7.63;;;6.93;;
3541;SDS011;1785;47.388;8.538;2022-09-16T04:04:02;7.30;;;6.67;;
3541;SDS011;1785;47.388;8.538;2022-09-16T04:06:28;7.23;;;6.63;;
3541;SDS011;1785;47.388;8.538;2022-09-16T04:08:55;7.67;;;6.87;;
3541;SDS011;1785;47.388;8.538;2022-09-16T04:11:23;7.37;;;6.63;;
3541;SDS011;1785;47.388;8.538;2022-09-16T04:13:49;7.27;;;6.67;;
3541;SDS011;1785;47.388;8.538;2022-09-16T04:16:18;7.20;;;6.60;;
3541;SDS011;1785;47.388;8.538;2022-09-16T04:18:45;7.13;;;6.43;;
3541;SDS011;1785;47.388;8.538;2022-09-16T04:21:12;7.10;;;6.57;;
3541;SDS011;1785;47.388;8.538;2022-09-16T04:23:39;9.30;;;7.20;;
3541;SDS011;1785;47.388;8.538;2022-09-16T04:26:07;7.00;;;6.43;;
3541;SDS011;1785;47.388;8.538;2022-09-16T04:28:34;6.60;;;6.00;;
3541;SDS011;1785;47.388;8.538;2022-09-16T04:31:00;7.43;;;6.80;;
3541;SDS011;1785;47.388;8.538;2022-09-16T04:33:28;8.27;;;7.47;;
3541;SDS011;1785;47.388;8.538;2022-09-16T04:36:00;6.80;;;6.10;;
3541;SDS011;1785;47.388;8.538;2022-09-16T04:38:28;7.17;;;6.57;;
3541;SDS011;1785;47.388;8.538;2022-09-16T04:40:58;7.43;;;5.10;;
3541;SDS011;1785;47.388;8.538;2022-09-16T04:43:26;6.37;;;5.80;;
3541;SDS011;1785;47.388;8.538;2022-09-16T04:45:52;6.20;;;5.60;;
3541;SDS011;1785;47.388;8.538;2022-09-16T04:48:18;6.37;;;5.77;;
3541;SDS011;1785;47.388;8.538;2022-09-16T04:50:45;6.50;;;5.20;;
3541;SDS011;1785;47.388;8.538;2022-09-16T04:53:11;5.63;;;5.13;;
3541;SDS011;1785;47.388;8.538;2022-09-16T04:55:37;5.27;;;4.77;;
3541;SDS011;1785;47.388;8.538;2022-09-16T04:58:03;4.50;;;4.13;;
3541;SDS011;1785;47.388;8.538;2022-09-16T05:00:30;4.30;;;3.90;;
3541;SDS011;1785;47.388;8.538;2022-09-16T05:02:57;7.30;;;5.93;;
3541;SDS011;1785;47.388;8.538;2022-09-16T05:05:23;12.07;;;5.40;;
3541;SDS011;1785;47.388;8.538;2022-09-16T05:07:49;6.03;;;5.55;;
3541;SDS011;1785;47.388;8.538;2022-09-16T05:10:16;5.40;;;5.00;;
3541;SDS011;1785;47.388;8.538;2022-09-16T05:12:43;7.07;;;5.47;;
3541;SDS011;1785;47.388;8.538;2022-09-16T05:15:09;4.77;;;4.47;;
3541;SDS011;1785;47.388;8.538;2022-09-16T05:17:36;6.10;;;5.20;;
3541;SDS011;1785;47.388;8.538;2022-09-16T05:20:02;6.93;;;6.33;;
3541;SDS011;1785;47.388;8.538;2022-09-16T05:22:29;8.40;;;6.70;;
3541;SDS011;1785;47.388;8.538;2022-09-16T05:24:58;7.53;;;6.93;;
3541;SDS011;1785;47.388;8.538;2022-09-16T05:27:24;10.13;;;7.20;;
3541;SDS011;1785;47.388;8.538;2022-09-16T05:29:52;7.43;;;6.83;;
3541;SDS011;1785;47.388;8.538;2022-09-16T05:32:18;8.97;;;7.00;;
3541;SDS011;1785;47.388;8.538;2022-09-16T05:34:45;7.90;;;7.10;;
3541;SDS011;1785;47.388;8.538;2022-09-16T05:37:11;10.73;;;7.60;;
3541;SDS011;1785;47.388;8.538;2022-09-16T05:39:38;9.50;;;7.83;;
3541;SDS011;1785;47.388;8.538;2022-09-16T05:42:04;7.67;;;6.93;;
3541;SDS011;1785;47.388;8.538;2022-09-16T05:44:31;7.30;;;6.60;;
3541;SDS011;1785;47.388;8.538;2022-09-16T05:46:57;7.30;;;6.70;;
3541;SDS011;1785;47.388;8.538;2022-09-16T05:49:23;7.93;;;7.23;;
3541;SDS011;1785;47.388;8.538;2022-09-16T05:51:51;7.57;;;6.87;;
3541;SDS011;1785;47.388;8.538;2022-09-16T05:54:18;12.23;;;6.90;;
3541;SDS011;1785;47.388;8.538;2022-09-16T05:56:45;8.83;;;6.53;;
3541;SDS011;1785;47.388;8.538;2022-09-16T05:59:12;9.20;;;6.73;;
3541;SDS011;1785;47.388;8.538;2022-09-16T06:01:39;8.03;;;7.40;;
3541;SDS011;1785;47.388;8.538;2022-09-16T06:04:06;6.57;;;5.97;;
3541;SDS011;1785;47.388;8.538;2022-09-16T06:06:36;7.60;;;6.10;;
3541;SDS011;1785;47.388;8.538;2022-09-16T06:09:04;6.63;;;6.13;;
3541;SDS011;1785;47.388;8.538;2022-09-16T06:11:34;7.80;;;7.10;;
3541;SDS011;1785;47.388;8.538;2022-09-16T06:14:01;8.43;;;7.63;;
3541;SDS011;1785;47.388;8.538;2022-09-16T06:16:30;8.13;;;7.43;;
3541;SDS011;1785;47.388;8.538;2022-09-16T06:18:57;8.20;;;7.50;;
3541;SDS011;1785;47.388;8.538;2022-09-16T06:21:25;7.90;;;7.20;;
3541;SDS011;1785;47.388;8.538;2022-09-16T06:23:52;7.32;;;6.63;;
3541;SDS011;1785;47.388;8.538;2022-09-16T06:26:20;9.20;;;8.30;;
3541;SDS011;1785;47.388;8.538;2022-09-16T06:31:22;8.00;;;7.27;;
3541;SDS011;1785;47.388;8.538;2022-09-16T06:33:50;8.70;;;7.27;;
3541;SDS011;1785;47.388;8.538;2022-09-16T06:36:17;10.90;;;8.03;;
3541;SDS011;1785;47.388;8.538;2022-09-16T06:38:46;7.90;;;7.20;;
3541;SDS011;1785;47.388;8.538;2022-09-16T06:41:14;12.37;;;8.00;;
3541;SDS011;1785;47.388;8.538;2022-09-16T06:43:43;10.93;;;7.30;;
3541;SDS011;1785;47.388;8.538;2022-09-16T06:46:10;7.80;;;7.13;;
3541;SDS011;1785;47.388;8.538;2022-09-16T06:48:40;7.57;;;6.87;;
3541;SDS011;1785;47.388;8.538;2022-09-16T06:51:08;8.67;;;7.87;;
3541;SDS011;1785;47.388;8.538;2022-09-16T06:53:36;8.17;;;7.43;;
3541;SDS011;1785;47.388;8.538;2022-09-16T06:56:03;8.73;;;7.93;;
3541;SDS011;1785;47.388;8.538;2022-09-16T06:58:30;7.97;;;7.17;;
3541;SDS011;1785;47.388;8.538;2022-09-16T07:00:58;7.70;;;6.90;;
3541;SDS011;1785;47.388;8.538;2022-09-16T07:03:30;10.23;;;7.37;;
3541;SDS011;1785;47.388;8.538;2022-09-16T07:05:56;9.10;;;7.47;;
3541;SDS011;1785;47.388;8.538;2022-09-16T07:08:26;6.47;;;5.87;;
3541;SDS011;1785;47.388;8.538;2022-09-16T07:10:56;6.47;;;5.87;;
3541;SDS011;1785;47.388;8.538;2022-09-16T07:13:23;6.70;;;6.03;;
3541;SDS011;1785;47.388;8.538;2022-09-16T07:15:50;8.47;;;5.90;;
3541;SDS011;1785;47.388;8.538;2022-09-16T07:18:17;5.60;;;5.10;;
3541;SDS011;1785;47.388;8.538;2022-09-16T07:20:44;8.10;;;5.50;;
3541;SDS011;1785;47.388;8.538;2022-09-16T07:23:10;6.63;;;6.00;;
3541;SDS011;1785;47.388;8.538;2022-09-16T07:25:37;7.07;;;6.40;;
3541;SDS011;1785;47.388;8.538;2022-09-16T07:28:03;5.57;;;5.03;;
3541;SDS011;1785;47.388;8.538;2022-09-16T07:30:30;7.20;;;6.50;;
3541;SDS011;1785;47.388;8.538;2022-09-16T07:32:58;6.47;;;5.97;;
3541;SDS011;1785;47.388;8.538;2022-09-16T07:35:25;6.73;;;6.13;;
3541;SDS011;1785;47.388;8.538;2022-09-16T07:37:51;7.53;;;6.43;;
3541;SDS011;1785;47.388;8.538;2022-09-16T07:40:18;7.63;;;6.93;;
3541;SDS011;1785;47.388;8.538;2022-09-16T07:42:44;9.83;;;7.00;;
3541;SDS011;1785;47.388;8.538;2022-09-16T07:45:11;7.00;;;6.10;;
3541;SDS011;1785;47.388;8.538;2022-09-16T07:47:37;5.60;;;5.13;;
3541;SDS011;1785;47.388;8.538;2022-09-16T07:50:03;5.97;;;5.47;;
3541;SDS011;1785;47.388;8.538;2022-09-16T07:52:31;5.53;;;4.97;;
3541;SDS011;1785;47.388;8.538;2022-09-16T07:54:57;5.80;;;4.90;;
3541;SDS011;1785;47.388;8.538;2022-09-16T07:57:24;4.93;;;4.47;;
3541;SDS011;1785;47.388;8.538;2022-09-16T07:59:50;6.80;;;5.83;;
3541;SDS011;1785;47.388;8.538;2022-09-16T08:02:17;8.40;;;4.50;;
3541;SDS011;1785;47.388;8.538;2022-09-16T08:04:43;8.30;;;5.53;;
3541;SDS011;1785;47.388;8.538;2022-09-16T08:07:09;6.20;;;5.60;;
3541;SDS011;1785;47.388;8.538;2022-09-16T08:09:37;5.80;;;5.20;;
3541;SDS011;1785;47.388;8.538;2022-09-16T08:12:03;7.10;;;4.97;;
3541;SDS011;1785;47.388;8.538;2022-09-16T08:14:30;5.83;;;5.33;;
3541;SDS011;1785;47.388;8.538;2022-09-16T08:16:57;8.03;;;5.60;;
3541;SDS011;1785;47.388;8.538;2022-09-16T08:19:25;6.60;;;4.53;;
3541;SDS011;1785;47.388;8.538;2022-09-16T08:21:51;5.80;;;4.97;;
3541;SDS011;1785;47.388;8.538;2022-09-16T08:24:17;5.50;;;5.00;;
3541;SDS011;1785;47.388;8.538;2022-09-16T08:26:44;4.80;;;4.40;;
3541;SDS011;1785;47.388;8.538;2022-09-16T08:29:11;4.13;;;3.73;;
3541;SDS011;1785;47.388;8.538;2022-09-16T08:31:37;4.40;;;4.10;;
3541;SDS011;1785;47.388;8.538;2022-09-16T08:34:04;4.20;;;3.80;;
3541;SDS011;1785;47.388;8.538;2022-09-16T08:36:30;7.13;;;4.40;;
3541;SDS011;1785;47.388;8.538;2022-09-16T08:38:58;11.50;;;4.50;;
3541;SDS011;1785;47.388;8.538;2022-09-16T08:41:27;5.83;;;4.27;;
3541;SDS011;1785;47.388;8.538;2022-09-16T08:44:08;4.40;;;3.90;;
3541;SDS011;1785;47.388;8.538;2022-09-16T08:46:42;5.33;;;4.40;;
3541;SDS011;1785;47.388;8.538;2022-09-16T08:49:16;4.97;;;3.93;;
3541;SDS011;1785;47.388;8.538;2022-09-16T08:51:46;4.70;;;4.30;;
3541;SDS011;1785;47.388;8.538;2022-09-16T08:54:16;4.70;;;4.30;;
3541;SDS011;1785;47.388;8.538;2022-09-16T08:56:51;4.90;;;4.33;;
3541;SDS011;1785;47.388;8.538;2022-09-16T08:59:20;4.67;;;4.10;;
3541;SDS011;1785;47.388;8.538;2022-09-16T09:01:51;4.23;;;3.93;;
3541;SDS011;1785;47.388;8.538;2022-09-16T09:04:24;5.33;;;4.07;;
3541;SDS011;1785;47.388;8.538;2022-09-16T09:06:56;5.17;;;4.67;;
3541;SDS011;1785;47.388;8.538;2022-09-16T09:09:39;3.83;;;3.53;;
3541;SDS011;1785;47.388;8.538;2022-09-16T09:12:17;6.63;;;5.07;;
3541;SDS011;1785;47.388;8.538;2022-09-16T09:14:59;11.10;;;5.57;;
3541;SDS011;1785;47.388;8.538;2022-09-16T09:17:34;4.93;;;4.43;;
3541;SDS011;1785;47.388;8.538;2022-09-16T09:20:14;5.13;;;4.67;;
3541;SDS011;1785;47.388;8.538;2022-09-16T09:22:58;6.50;;;5.30;;
3541;SDS011;1785;47.388;8.538;2022-09-16T09:25:38;4.83;;;4.37;;
3541;SDS011;1785;47.388;8.538;2022-09-16T09:28:15;6.43;;;4.77;;
3541;SDS011;1785;47.388;8.538;2022-09-16T09:30:51;4.33;;;4.03;;
3541;SDS011;1785;47.388;8.538;2022-09-16T09:33:28;5.00;;;4.50;;
3541;SDS011;1785;47.388;8.538;2022-09-16T09:36:08;8.70;;;5.40;;
3541;SDS011;1785;47.388;8.538;2022-09-16T09:38:47;5.23;;;4.83;;
3541;SDS011;1785;47.388;8.538;2022-09-16T09:41:29;7.73;;;4.00;;
3541;SDS011;1785;47.388;8.538;2022-09-16T09:44:00;5.10;;;4.37;;
3541;SDS011;1785;47.388;8.538;2022-09-16T09:46:40;10.07;;;4.93;;
3541;SDS011;1785;47.388;8.538;2022-09-16T09:49:12;10.73;;;4.83;;
3541;SDS011;1785;47.388;8.538;2022-09-16T09:51:41;4.90;;;3.77;;
3541;SDS011;1785;47.388;8.538;2022-09-16T09:54:25;4.80;;;4.23;;
3541;SDS011;1785;47.388;8.538;2022-09-16T09:56:54;6.97;;;6.27;;
3541;SDS011;1785;47.388;8.538;2022-09-16T09:59:26;8.20;;;5.47;;
3541;SDS011;1785;47.388;8.538;2022-09-16T10:01:58;4.93;;;4.50;;
3541;SDS011;1785;47.388;8.538;2022-09-16T10:04:26;6.33;;;5.83;;
3541;SDS011;1785;47.388;8.538;2022-09-16T10:06:55;6.57;;;4.80;;
3541;SDS011;1785;47.388;8.538;2022-09-16T10:09:22;6.63;;;6.07;;
3541;SDS011;1785;47.388;8.538;2022-09-16T10:11:51;7.53;;;5.90;;
3541;SDS011;1785;47.388;8.538;2022-09-16T10:14:23;5.70;;;5.17;;
3541;SDS011;1785;47.388;8.538;2022-09-16T10:16:55;6.33;;;5.73;;
3541;SDS011;1785;47.388;8.538;2022-09-16T10:19:26;10.63;;;6.00;;
3541;SDS011;1785;47.388;8.538;2022-09-16T10:21:55;8.63;;;4.63;;
3541;SDS011;1785;47.388;8.538;2022-09-16T10:24:33;6.23;;;5.50;;
3541;SDS011;1785;47.388;8.538;2022-09-16T10:27:01;6.83;;;6.10;;
3541;SDS011;1785;47.388;8.538;2022-09-16T10:29:42;7.10;;;6.50;;
3541;SDS011;1785;47.388;8.538;2022-09-16T10:32:08;6.57;;;5.97;;
3541;SDS011;1785;47.388;8.538;2022-09-16T10:34:41;6.80;;;6.30;;
3541;SDS011;1785;47.388;8.538;2022-09-16T10:37:13;7.47;;;6.20;;
3541;SDS011;1785;47.388;8.538;2022-09-16T10:39:42;16.53;;;8.10;;
3541;SDS011;1785;47.388;8.538;2022-09-16T10:42:14;7.37;;;6.77;;
3541;SDS011;1785;47.388;8.538;2022-09-16T10:44:43;7.67;;;6.97;;
3541;SDS011;1785;47.388;8.538;2022-09-16T10:47:14;10.03;;;7.50;;
3541;SDS011;1785;47.388;8.538;2022-09-16T10:49:44;8.20;;;7.33;;
3541;SDS011;1785;47.388;8.538;2022-09-16T10:52:14;8.30;;;7.50;;
3541;SDS011;1785;47.388;8.538;2022-09-16T10:54:41;10.73;;;8.23;;
3541;SDS011;1785;47.388;8.538;2022-09-16T10:57:21;9.70;;;7.77;;
3541;SDS011;1785;47.388;8.538;2022-09-16T11:00:05;8.40;;;7.50;;
3541;SDS011;1785;47.388;8.538;2022-09-16T11:02:48;10.53;;;8.50;;
3541;SDS011;1785;47.388;8.538;2022-09-16T11:05:29;8.73;;;7.90;;
3541;SDS011;1785;47.388;8.538;2022-09-16T11:08:00;8.10;;;7.30;;
3541;SDS011;1785;47.388;8.538;2022-09-16T11:10:36;8.90;;;8.10;;
3541;SDS011;1785;47.388;8.538;2022-09-16T11:13:14;10.80;;;7.20;;
3541;SDS011;1785;47.388;8.538;2022-09-16T11:15:52;8.60;;;7.80;;
3541;SDS011;1785;47.388;8.538;2022-09-16T11:18:31;9.00;;;7.40;;
3541;SDS011;1785;47.388;8.538;2022-09-16T11:21:19;8.37;;;7.47;;
3541;SDS011;1785;47.388;8.538;2022-09-16T11:24:03;8.17;;;7.30;;
3541;SDS011;1785;47.388;8.538;2022-09-16T11:26:42;9.90;;;6.73;;
3541;SDS011;1785;47.388;8.538;2022-09-16T11:29:18;7.57;;;6.83;;
3541;SDS011;1785;47.388;8.538;2022-09-16T11:32:12;7.87;;;7.17;;
3541;SDS011;1785;47.388;8.538;2022-09-16T11:34:51;7.33;;;6.57;;
3541;SDS011;1785;47.388;8.538;2022-09-16T11:37:28;7.23;;;6.47;;
3541;SDS011;1785;47.388;8.538;2022-09-16T11:40:11;7.87;;;7.03;;
3541;SDS011;1785;47.388;8.538;2022-09-16T11:42:48;7.40;;;6.73;;
3541;SDS011;1785;47.388;8.538;2022-09-16T11:45:29;8.07;;;7.27;;
3541;SDS011;1785;47.388;8.538;2022-09-16T11:48:14;9.50;;;6.33;;
3541;SDS011;1785;47.388;8.538;2022-09-16T11:51:02;7.63;;;6.80;;
3541;SDS011;1785;47.388;8.538;2022-09-16T11:53:43;8.30;;;6.83;;
3541;SDS011;1785;47.388;8.538;2022-09-16T11:56:28;6.90;;;6.20;;
3541;SDS011;1785;47.388;8.538;2022-09-16T11:59:02;8.70;;;6.30;;
3541;SDS011;1785;47.388;8.538;2022-09-16T12:01:38;6.37;;;5.87;;
3541;SDS011;1785;47.388;8.538;2022-09-16T12:04:09;7.27;;;5.93;;
3541;SDS011;1785;47.388;8.538;2022-09-16T12:06:41;6.30;;;5.80;;
3541;SDS011;1785;47.388;8.538;2022-09-16T12:09:19;5.80;;;5.20;;
3541;SDS011;1785;47.388;8.538;2022-09-16T12:11:53;8.03;;;5.83;;
3541;SDS011;1785;47.388;8.538;2022-09-16T12:14:32;5.23;;;4.73;;
3541;SDS011;1785;47.388;8.538;2022-09-16T12:17:03;8.10;;;5.77;;
3541;SDS011;1785;47.388;8.538;2022-09-16T12:19:33;6.23;;;5.57;;
3541;SDS011;1785;47.388;8.538;2022-09-16T12:22:06;5.30;;;4.87;;
3541;SDS011;1785;47.388;8.538;2022-09-16T12:24:38;5.87;;;5.13;;
3541;SDS011;1785;47.388;8.538;2022-09-16T12:27:08;5.47;;;5.03;;
3541;SDS011;1785;47.388;8.538;2022-09-16T12:29:46;5.57;;;5.17;;
3541;SDS011;1785;47.388;8.538;2022-09-16T12:32:18;4.85;;;4.10;;
3541;SDS011;1785;47.388;8.538;2022-09-16T12:34:51;5.93;;;5.37;;
3541;SDS011;1785;47.388;8.538;2022-09-16T12:37:27;5.20;;;4.63;;
3541;SDS011;1785;47.388;8.538;2022-09-16T12:39:59;5.30;;;4.80;;
3541;SDS011;1785;47.388;8.538;2022-09-16T12:42:45;5.90;;;4.40;;
3541;SDS011;1785;47.388;8.538;2022-09-16T12:45:32;6.13;;;4.63;;
3541;SDS011;1785;47.388;8.538;2022-09-16T12:48:29;4.37;;;3.97;;
3541;SDS011;1785;47.388;8.538;2022-09-16T12:51:18;6.33;;;4.43;;
3541;SDS011;1785;47.388;8.538;2022-09-16T12:54:08;4.20;;;3.90;;
3541;SDS011;1785;47.388;8.538;2022-09-16T12:56:51;3.70;;;3.40;;
3541;SDS011;1785;47.388;8.538;2022-09-16T12:59:46;3.90;;;3.60;;
3541;SDS011;1785;47.388;8.538;2022-09-16T13:02:22;4.33;;;3.70;;
3541;SDS011;1785;47.388;8.538;2022-09-16T13:04:54;3.73;;;3.43;;
3541;SDS011;1785;47.388;8.538;2022-09-16T13:07:24;4.93;;;4.17;;
3541;SDS011;1785;47.388;8.538;2022-09-16T13:09:59;3.90;;;3.60;;
3541;SDS011;1785;47.388;8.538;2022-09-16T13:12:28;4.80;;;3.90;;
3541;SDS011;1785;47.388;8.538;2022-09-16T13:14:55;7.70;;;4.67;;
3541;SDS011;1785;47.388;8.538;2022-09-16T13:17:27;4.93;;;4.50;;
3541;SDS011;1785;47.388;8.538;2022-09-16T13:19:55;4.73;;;3.93;;
3541;SDS011;1785;47.388;8.538;2022-09-16T13:22:33;3.73;;;3.33;;
3541;SDS011;1785;47.388;8.538;2022-09-16T13:25:08;4.37;;;3.53;;
3541;SDS011;1785;47.388;8.538;2022-09-16T13:27:40;5.50;;;3.78;;
3541;SDS011;1785;47.388;8.538;2022-09-16T13:30:28;4.27;;;3.87;;
3541;SDS011;1785;47.388;8.538;2022-09-16T13:33:00;4.23;;;3.67;;
3541;SDS011;1785;47.388;8.538;2022-09-16T13:35:44;4.30;;;3.60;;
3541;SDS011;1785;47.388;8.538;2022-09-16T13:38:24;4.30;;;4.00;;
3541;SDS011;1785;47.388;8.538;2022-09-16T13:41:03;5.10;;;4.60;;
3541;SDS011;1785;47.388;8.538;2022-09-16T13:43:31;5.47;;;4.77;;
3541;SDS011;1785;47.388;8.538;2022-09-16T13:46:04;4.80;;;3.70;;
3541;SDS011;1785;47.388;8.538;2022-09-16T13:48:40;5.13;;;4.73;;
3541;SDS011;1785;47.388;8.538;2022-09-16T13:51:13;4.00;;;3.70;;
3541;SDS011;1785;47.388;8.538;2022-09-16T13:53:43;4.20;;;3.90;;
3541;SDS011;1785;47.388;8.538;2022-09-16T13:56:24;5.97;;;3.53;;
3541;SDS011;1785;47.388;8.538;2022-09-16T13:59:08;5.00;;;3.87;;
3541;SDS011;1785;47.388;8.538;2022-09-16T14:01:44;4.27;;;3.47;;
3541;SDS011;1785;47.388;8.538;2022-09-16T14:04:22;3.60;;;3.30;;
3541;SDS011;1785;47.388;8.538;2022-09-16T14:07:05;5.43;;;3.73;;
3541;SDS011;1785;47.388;8.538;2022-09-16T14:09:43;5.90;;;3.20;;
3541;SDS011;1785;47.388;8.538;2022-09-16T14:12:21;3.57;;;3.27;;
3541;SDS011;1785;47.388;8.538;2022-09-16T14:14:52;5.57;;;3.97;;
3541;SDS011;1785;47.388;8.538;2022-09-16T14:17:22;3.90;;;3.60;;
3541;SDS011;1785;47.388;8.538;2022-09-16T14:19:52;5.03;;;4.63;;
3541;SDS011;1785;47.388;8.538;2022-09-16T14:22:23;5.07;;;4.03;;
3541;SDS011;1785;47.388;8.538;2022-09-16T14:24:51;3.77;;;3.47;;
3541;SDS011;1785;47.388;8.538;2022-09-16T14:27:20;4.40;;;4.00;;
3541;SDS011;1785;47.388;8.538;2022-09-16T14:29:54;4.03;;;3.73;;
3541;SDS011;1785;47.388;8.538;2022-09-16T14:32:23;3.73;;;3.43;;
3541;SDS011;1785;47.388;8.538;2022-09-16T14:34:52;3.73;;;3.43;;
3541;SDS011;1785;47.388;8.538;2022-09-16T14:37:20;3.67;;;3.10;;
3541;SDS011;1785;47.388;8.538;2022-09-16T14:39:49;4.23;;;3.83;;
3541;SDS011;1785;47.388;8.538;2022-09-16T14:42:19;4.50;;;4.10;;
3541;SDS011;1785;47.388;8.538;2022-09-16T14:44:48;3.67;;;3.40;;
3541;SDS011;1785;47.388;8.538;2022-09-16T14:47:18;3.30;;;3.00;;
3541;SDS011;1785;47.388;8.538;2022-09-16T14:49:49;4.17;;;3.77;;
3541;SDS011;1785;47.388;8.538;2022-09-16T14:52:21;3.20;;;3.00;;
3541;SDS011;1785;47.388;8.538;2022-09-16T14:54:48;4.00;;;3.40;;
3541;SDS011;1785;47.388;8.538;2022-09-16T14:57:16;3.40;;;3.20;;
3541;SDS011;1785;47.388;8.538;2022-09-16T14:59:46;3.30;;;3.07;;
3541;SDS011;1785;47.388;8.538;2022-09-16T15:02:16;3.73;;;3.10;;
3541;SDS011;1785;47.388;8.538;2022-09-16T15:04:49;3.73;;;3.20;;
3541;SDS011;1785;47.388;8.538;2022-09-16T15:07:19;3.33;;;3.13;;
3541;SDS011;1785;47.388;8.538;2022-09-16T15:09:49;3.50;;;3.10;;
3541;SDS011;1785;47.388;8.538;2022-09-16T15:18:20;3.60;;;2.70;;
3541;SDS011;1785;47.388;8.538;2022-09-16T15:20:50;3.37;;;3.07;;
3541;SDS011;1785;47.388;8.538;2022-09-16T15:23:19;3.00;;;2.80;;
3541;SDS011;1785;47.388;8.538;2022-09-16T15:25:51;2.83;;;2.63;;
3541;SDS011;1785;47.388;8.538;2022-09-16T15:28:20;3.30;;;3.00;;
3541;SDS011;1785;47.388;8.538;2022-09-16T15:30:47;3.67;;;2.90;;
3541;SDS011;1785;47.388;8.538;2022-09-16T15:33:22;3.03;;;2.83;;
3541;SDS011;1785;47.388;8.538;2022-09-16T15:35:51;3.07;;;2.87;;
3541;SDS011;1785;47.388;8.538;2022-09-16T15:38:19;3.93;;;3.30;;
3541;SDS011;1785;47.388;8.538;2022-09-16T15:40:47;5.07;;;3.50;;
3541;SDS011;1785;47.388;8.538;2022-09-16T15:43:15;3.80;;;3.27;;
3541;SDS011;1785;47.388;8.538;2022-09-16T15:45:58;5.73;;;3.20;;
3541;SDS011;1785;47.388;8.538;2022-09-16T15:48:28;3.40;;;3.10;;
3541;SDS011;1785;47.388;8.538;2022-09-16T15:50:57;3.57;;;3.37;;
3541;SDS011;1785;47.388;8.538;2022-09-16T15:53:42;3.57;;;3.13;;
3541;SDS011;1785;47.388;8.538;2022-09-16T15:56:19;6.77;;;6.00;;
3541;SDS011;1785;47.388;8.538;2022-09-16T15:58:51;10.07;;;8.73;;